Time;durP1;ratioP1;P1;durP2;ratioP2;P2;SDS_P1;SDS_P2;PMS_P1;PMS_P2;Temp;Humidity;BMP_temperature;BMP_pressure;BME280_temperature;BME280_humidity;BME280_pressure;Samples;Min_cycle;Max_cycle;Signal;HPM_P1;HPM_P2
2022/09/24 00:00:43;;;;;;;7.33;3.60;;;10.20;99.90;;;;;;5013983;28;20430;-63
2022/09/24 00:03:08;;;;;;;3.80;2.77;;;10.20;99.90;;;;;;5012843;28;20426;-64
2022/09/24 00:05:38;;;;;;;6.20;3.10;;;10.20;99.90;;;;;;5013032;28;20512;-64
2022/09/24 00:08:07;;;;;;;9.13;3.40;;;10.30;99.90;;;;;;5009191;28;20242;-63
2022/09/24 00:10:41;;;;;;;4.87;2.90;;;10.20;99.90;;;;;;4992751;28;20497;-64
2022/09/24 00:13:08;;;;;;;8.07;3.20;;;10.20;99.90;;;;;;5010472;28;20762;-64
2022/09/24 00:15:46;;;;;;;6.73;3.50;;;10.20;99.90;;;;;;5011834;28;21155;-64
2022/09/24 00:18:13;;;;;;;4.77;2.33;;;10.20;99.90;;;;;;5009907;28;20949;-64
2022/09/24 00:20:39;;;;;;;6.03;2.50;;;10.10;99.90;;;;;;5010222;28;20456;-64
2022/09/24 00:23:06;;;;;;;8.00;2.90;;;10.10;99.90;;;;;;5010947;28;20910;-64
2022/09/24 00:28:17;;;;;;;3.63;2.43;;;10.00;99.90;;;;;;4995675;28;20782;-64
2022/09/24 00:30:43;;;;;;;4.30;2.30;;;9.80;99.90;;;;;;5007769;28;20477;-64
2022/09/24 00:33:10;;;;;;;4.30;2.37;;;9.80;99.90;;;;;;5010917;28;20498;-64
2022/09/24 00:35:37;;;;;;;3.87;2.53;;;9.80;99.90;;;;;;5006202;28;20450;-64
2022/09/24 00:38:05;;;;;;;6.40;2.70;;;9.80;99.90;;;;;;5010428;28;21056;-64
2022/09/24 00:40:35;;;;;;;5.37;2.20;;;9.80;99.90;;;;;;5004964;28;20927;-64
2022/09/24 00:43:19;;;;;;;4.93;2.57;;;9.80;99.90;;;;;;5006795;28;20500;-64
2022/09/24 00:45:45;;;;;;;5.73;2.53;;;9.80;99.90;;;;;;5003873;28;20509;-64
2022/09/24 00:48:11;;;;;;;4.40;2.47;;;9.80;99.90;;;;;;5007586;28;20509;-64
2022/09/24 00:50:36;;;;;;;5.03;2.53;;;9.80;99.90;;;;;;5005537;28;20673;-64
2022/09/24 00:53:12;;;;;;;12.13;2.30;;;9.80;99.90;;;;;;5007596;28;20191;-64
2022/09/24 00:55:42;;;;;;;3.17;2.37;;;9.80;99.90;;;;;;5006060;28;20186;-64
2022/09/24 00:58:08;;;;;;;5.40;2.23;;;9.70;99.90;;;;;;4993498;28;20416;-64
2022/09/24 01:00:37;;;;;;;3.10;2.20;;;9.60;99.90;;;;;;5003254;28;21250;-64
2022/09/24 01:03:09;;;;;;;4.37;2.10;;;9.60;99.90;;;;;;5003562;28;20773;-64
2022/09/24 01:05:36;;;;;;;4.30;2.20;;;9.60;99.90;;;;;;5005287;28;20504;-64
2022/09/24 01:08:03;;;;;;;3.50;2.00;;;9.60;99.90;;;;;;5002694;28;20949;-64
2022/09/24 01:10:55;;;;;;;7.00;2.93;;;9.50;99.90;;;;;;5005624;28;20981;-64
2022/09/24 01:13:39;;;;;;;4.70;2.37;;;9.50;99.90;;;;;;4997894;28;20751;-64
2022/09/24 01:16:39;;;;;;;6.17;2.67;;;9.40;99.90;;;;;;5002953;28;20415;-64
2022/09/24 01:19:24;;;;;;;4.40;2.50;;;9.40;99.90;;;;;;4995860;28;20418;-64
2022/09/24 01:21:54;;;;;;;4.20;2.17;;;9.30;99.90;;;;;;5010920;28;20608;-64
2022/09/24 01:24:39;;;;;;;4.57;2.27;;;9.20;99.90;;;;;;5012483;28;20497;-64
2022/09/24 01:27:22;;;;;;;4.70;2.40;;;9.20;99.90;;;;;;5011741;28;20418;-64
2022/09/24 01:29:54;;;;;;;6.37;3.00;;;9.20;99.90;;;;;;5008708;28;20616;-64
2022/09/24 01:32:48;;;;;;;3.80;2.30;;;9.20;99.90;;;;;;5011519;28;20426;-64
2022/09/24 01:35:26;;;;;;;4.10;2.57;;;9.20;99.90;;;;;;5010226;28;20418;-64
2022/09/24 01:37:59;;;;;;;6.70;3.50;;;9.20;99.90;;;;;;5011730;28;20406;-64
2022/09/24 01:40:28;;;;;;;3.90;2.30;;;9.20;99.90;;;;;;5008530;28;20462;-64
2022/09/24 01:42:56;;;;;;;5.67;2.63;;;9.00;99.90;;;;;;5011590;28;20448;-64
2022/09/24 01:45:23;;;;;;;4.90;3.10;;;9.00;99.90;;;;;;5008284;28;20422;-64
2022/09/24 01:47:49;;;;;;;3.57;2.33;;;9.00;99.90;;;;;;5007436;28;20450;-64
2022/09/24 01:50:17;;;;;;;5.10;2.70;;;8.90;99.90;;;;;;5006404;28;20473;-64
2022/09/24 01:53:01;;;;;;;7.47;2.90;;;8.90;99.90;;;;;;4992511;28;20473;-64
2022/09/24 01:55:32;;;;;;;6.80;2.57;;;8.90;99.90;;;;;;5006332;28;20493;-64
2022/09/24 01:58:07;;;;;;;4.60;3.07;;;8.80;99.90;;;;;;4988157;28;20415;-64
2022/09/24 02:00:38;;;;;;;3.37;2.13;;;8.80;99.90;;;;;;5009860;28;20420;-64
2022/09/24 02:03:11;;;;;;;4.30;2.57;;;8.80;99.90;;;;;;5007761;28;20925;-65
2022/09/24 02:05:49;;;;;;;5.33;3.07;;;8.80;99.90;;;;;;5009242;28;20422;-64
2022/09/24 02:08:21;;;;;;;8.97;4.00;;;8.80;99.90;;;;;;5006689;28;20482;-64
2022/09/24 02:10:58;;;;;;;6.90;2.60;;;8.90;99.90;;;;;;5004790;28;21002;-64
2022/09/24 02:13:28;;;;;;;13.40;3.07;;;8.90;99.90;;;;;;5006391;28;20425;-64
2022/09/24 02:15:58;;;;;;;6.77;2.73;;;8.90;99.90;;;;;;5005899;28;20410;-64
2022/09/24 02:18:29;;;;;;;8.60;3.27;;;8.90;99.90;;;;;;5007044;28;20436;-65
2022/09/24 02:20:56;;;;;;;7.53;3.07;;;8.90;99.90;;;;;;5004838;28;20415;-64
2022/09/24 02:23:25;;;;;;;7.90;2.77;;;8.90;99.90;;;;;;5007470;28;20441;-64
2022/09/24 02:25:58;;;;;;;5.90;2.87;;;8.90;99.90;;;;;;5001684;28;20986;-64
2022/09/24 02:28:25;;;;;;;6.37;2.97;;;8.90;99.90;;;;;;4994715;28;20438;-64
2022/09/24 02:31:04;;;;;;;4.93;2.77;;;8.90;99.90;;;;;;5003274;28;20502;-63
2022/09/24 02:36:17;;;;;;;5.43;2.43;;;9.00;99.90;;;;;;5002495;28;20925;-63
2022/09/24 02:38:45;;;;;;;4.10;2.53;;;8.90;99.90;;;;;;4996873;28;20442;-63
2022/09/24 02:41:11;;;;;;;6.60;2.67;;;8.90;99.90;;;;;;5004700;28;20418;-64
2022/09/24 02:43:37;;;;;;;8.37;3.43;;;9.00;99.90;;;;;;5003369;28;21208;-64
2022/09/24 02:46:03;;;;;;;6.17;3.17;;;9.00;99.90;;;;;;5003410;28;20422;-64
2022/09/24 02:48:28;;;;;;;14.63;6.13;;;9.00;99.90;;;;;;5003440;28;20191;-64
2022/09/24 02:50:54;;;;;;;9.73;5.90;;;9.00;99.90;;;;;;5002767;28;20281;-64
2022/09/24 02:53:19;;;;;;;8.03;2.90;;;9.00;99.90;;;;;;5003434;28;20537;-63
2022/09/24 02:55:45;;;;;;;7.40;4.20;;;9.00;99.90;;;;;;4984256;28;20218;-63
2022/09/24 02:58:11;;;;;;;16.70;8.00;;;8.90;99.90;;;;;;4979482;28;20183;-64
2022/09/24 03:00:36;;;;;;;8.47;4.10;;;9.00;99.90;;;;;;5001228;28;20582;-64
2022/09/24 03:03:02;;;;;;;5.60;3.27;;;9.00;99.90;;;;;;5003620;28;20185;-64
2022/09/24 03:05:27;;;;;;;5.00;3.23;;;9.10;99.90;;;;;;5000111;28;20191;-64
2022/09/24 03:07:53;;;;;;;7.47;3.93;;;9.20;99.90;;;;;;5007631;28;20183;-64
2022/09/24 03:10:19;;;;;;;6.97;3.97;;;9.20;99.90;;;;;;5004341;28;20204;-64
2022/09/24 03:12:45;;;;;;;5.50;3.00;;;9.20;99.90;;;;;;4992739;28;20950;-64
2022/09/24 03:15:10;;;;;;;6.47;3.30;;;9.30;99.90;;;;;;5012887;28;20183;-64
2022/09/24 03:17:36;;;;;;;7.30;3.70;;;9.30;99.90;;;;;;5011512;28;20180;-64
2022/09/24 03:20:02;;;;;;;10.40;4.87;;;9.50;99.90;;;;;;4995547;28;20209;-64
2022/09/24 03:22:28;;;;;;;9.60;4.57;;;9.50;99.90;;;;;;4992748;28;20203;-64
2022/09/24 03:24:53;;;;;;;5.80;3.67;;;9.50;99.90;;;;;;4991930;28;20435;-64
2022/09/24 03:27:20;;;;;;;7.00;3.80;;;9.50;99.90;;;;;;5003356;28;20220;-64
2022/09/24 03:32:32;;;;;;;7.40;4.33;;;9.60;99.90;;;;;;5009761;28;20406;-64
2022/09/24 03:34:59;;;;;;;9.10;4.80;;;9.60;99.90;;;;;;5011412;28;20414;-64
2022/09/24 03:37:25;;;;;;;7.57;4.47;;;9.70;99.90;;;;;;5005551;28;20411;-64
2022/09/24 03:39:51;;;;;;;8.00;4.27;;;9.70;99.90;;;;;;5009908;28;20993;-64
2022/09/24 03:42:16;;;;;;;11.20;4.47;;;9.70;99.90;;;;;;5007666;28;20183;-64
2022/09/24 03:44:42;;;;;;;14.83;5.27;;;9.70;99.90;;;;;;5010538;28;20647;-64
2022/09/24 03:47:08;;;;;;;17.93;4.97;;;9.70;99.90;;;;;;5006213;28;20190;-64
2022/09/24 03:49:34;;;;;;;6.30;3.90;;;9.70;99.90;;;;;;4990541;28;20287;-64
2022/09/24 03:52:00;;;;;;;5.73;3.47;;;9.70;99.90;;;;;;5006002;28;20427;-64
2022/09/24 03:54:25;;;;;;;9.67;4.13;;;9.70;99.90;;;;;;5010233;28;20179;-64
2022/09/24 03:56:51;;;;;;;12.43;4.77;;;9.70;99.90;;;;;;5003779;28;20515;-64
2022/09/24 03:59:16;;;;;;;7.73;3.83;;;9.80;99.90;;;;;;4989755;28;20197;-64
2022/09/24 04:01:42;;;;;;;8.13;3.63;;;9.90;99.90;;;;;;5005111;28;20593;-64
2022/09/24 04:04:07;;;;;;;7.80;3.80;;;9.80;99.90;;;;;;5009236;28;20906;-64
2022/09/24 04:06:34;;;;;;;9.20;4.10;;;9.80;99.90;;;;;;5003801;28;20194;-64
2022/09/24 04:08:59;;;;;;;9.40;4.30;;;9.80;99.90;;;;;;5009120;28;20206;-64
2022/09/24 04:11:25;;;;;;;8.80;3.90;;;9.80;99.90;;;;;;5003011;28;20422;-64
2022/09/24 04:13:51;;;;;;;4.90;3.33;;;9.80;99.90;;;;;;5007195;28;20546;-63
2022/09/24 04:16:17;;;;;;;7.03;3.83;;;9.80;99.90;;;;;;5002736;28;20184;-64
2022/09/24 04:18:42;;;;;;;17.70;4.87;;;9.80;99.90;;;;;;4999236;28;20445;-63
2022/09/24 04:21:08;;;;;;;8.73;3.63;;;9.80;99.90;;;;;;5002506;28;20278;-64
2022/09/24 04:23:34;;;;;;;14.03;4.60;;;9.80;99.90;;;;;;5006028;28;20547;-64
2022/09/24 04:26:01;;;;;;;9.23;4.10;;;9.80;99.90;;;;;;5013673;28;20180;-64
2022/09/24 04:28:28;;;;;;;8.70;3.57;;;9.80;99.90;;;;;;5009990;28;20465;-64
2022/09/24 04:30:54;;;;;;;9.47;4.60;;;9.90;99.90;;;;;;5013167;28;20946;-64
2022/09/24 04:33:20;;;;;;;7.37;4.00;;;9.90;99.90;;;;;;5013396;28;20418;-64
2022/09/24 04:35:46;;;;;;;7.70;4.37;;;9.90;99.90;;;;;;5012027;28;20174;-64
2022/09/24 04:38:12;;;;;;;7.60;3.83;;;9.90;99.90;;;;;;4995704;28;20438;-64
2022/09/24 04:40:38;;;;;;;12.90;4.20;;;9.90;99.90;;;;;;5011091;28;20210;-64
2022/09/24 04:43:05;;;;;;;6.77;3.43;;;9.90;99.90;;;;;;5013241;28;20924;-64
2022/09/24 04:45:31;;;;;;;9.53;4.40;;;9.90;99.90;;;;;;5010660;28;20418;-64
2022/09/24 04:47:57;;;;;;;5.70;3.63;;;9.90;99.90;;;;;;5012777;28;20426;-64
2022/09/24 04:50:27;;;;;;;7.60;3.93;;;9.90;99.90;;;;;;5010221;28;20565;-64
2022/09/24 04:52:54;;;;;;;9.10;3.80;;;9.90;99.90;;;;;;4994489;28;20190;-64
2022/09/24 04:55:20;;;;;;;6.90;4.37;;;9.90;99.90;;;;;;5009838;28;20468;-64
2022/09/24 04:57:46;;;;;;;6.30;3.47;;;9.90;99.90;;;;;;4988614;28;20915;-64
2022/09/24 05:00:16;;;;;;;12.27;4.47;;;9.90;99.90;;;;;;5006168;28;20446;-64
2022/09/24 05:02:42;;;;;;;8.67;3.83;;;9.90;99.90;;;;;;5010885;28;20430;-64
2022/09/24 05:05:08;;;;;;;10.23;4.30;;;9.90;99.90;;;;;;5007062;28;20426;-65
2022/09/24 05:07:34;;;;;;;7.53;3.80;;;10.00;99.90;;;;;;4992763;28;20441;-65
2022/09/24 05:10:00;;;;;;;12.33;4.40;;;10.00;99.90;;;;;;4998983;28;20454;-65
2022/09/24 05:12:25;;;;;;;13.87;4.53;;;10.00;99.90;;;;;;5007659;28;20437;-64
2022/09/24 05:14:51;;;;;;;7.87;4.53;;;10.00;99.90;;;;;;5004614;28;20183;-64
2022/09/24 05:17:17;;;;;;;14.33;4.73;;;10.10;99.90;;;;;;5008722;28;20270;-64
2022/09/24 05:19:43;;;;;;;8.77;4.80;;;10.10;99.90;;;;;;5004606;28;20632;-64
2022/09/24 05:22:09;;;;;;;10.87;5.47;;;10.10;99.90;;;;;;5008907;28;20428;-65
2022/09/24 05:24:36;;;;;;;6.70;4.37;;;10.20;99.90;;;;;;5000212;28;20303;-63
2022/09/24 05:27:08;;;;;;;8.30;4.17;;;10.20;99.90;;;;;;5007705;28;20502;-63
2022/09/24 05:29:43;;;;;;;11.97;5.00;;;10.30;99.90;;;;;;5003358;28;20218;-63
2022/09/24 05:32:16;;;;;;;11.20;4.23;;;10.40;99.90;;;;;;5005761;28;20504;-63
2022/09/24 05:34:42;;;;;;;8.20;4.40;;;10.40;99.90;;;;;;5005474;28;20417;-64
2022/09/24 05:37:09;;;;;;;9.20;5.17;;;10.50;99.90;;;;;;5004612;28;20502;-65
2022/09/24 05:39:34;;;;;;;7.03;4.33;;;10.60;99.90;;;;;;4987054;28;20496;-64
2022/09/24 05:42:03;;;;;;;6.50;4.03;;;10.70;99.90;;;;;;5004566;28;20435;-64
2022/09/24 05:44:29;;;;;;;10.00;4.60;;;10.80;99.90;;;;;;5004157;28;20532;-64
2022/09/24 05:46:56;;;;;;;16.90;4.23;;;10.90;99.90;;;;;;5003535;28;20427;-64
2022/09/24 05:49:21;;;;;;;8.97;4.67;;;10.90;99.90;;;;;;4982907;28;21043;-64
2022/09/24 05:51:50;;;;;;;7.50;5.13;;;10.90;99.90;;;;;;5000579;28;20462;-64
2022/09/24 05:54:17;;;;;;;13.60;4.27;;;11.00;99.90;;;;;;5003773;28;20267;-64
2022/09/24 05:56:43;;;;;;;8.90;3.87;;;11.00;99.90;;;;;;4995702;28;20461;-64
2022/09/24 05:59:09;;;;;;;9.33;3.63;;;11.10;99.90;;;;;;5001683;28;20970;-64
2022/09/24 06:01:34;;;;;;;8.40;4.73;;;11.10;99.90;;;;;;5011942;28;21085;-64
2022/09/24 06:04:00;;;;;;;6.80;4.77;;;11.10;99.90;;;;;;5011966;28;20426;-64
2022/09/24 06:06:26;;;;;;;17.57;5.07;;;11.10;99.90;;;;;;4993497;28;20203;-64
2022/09/24 06:08:52;;;;;;;18.20;4.93;;;11.20;99.90;;;;;;4991365;28;20249;-64
2022/09/24 06:11:21;;;;;;;8.10;3.87;;;11.20;99.90;;;;;;5008857;28;20446;-64
2022/09/24 06:13:47;;;;;;;9.40;4.90;;;11.30;99.90;;;;;;5006999;28;20426;-64
2022/09/24 06:16:12;;;;;;;7.90;4.20;;;11.30;99.90;;;;;;4984738;28;20450;-65
2022/09/24 06:18:41;;;;;;;8.27;5.07;;;11.40;99.90;;;;;;5000954;28;20529;-65
2022/09/24 06:21:10;;;;;;;11.40;3.90;;;11.40;99.90;;;;;;4989353;28;20189;-65
2022/09/24 06:23:36;;;;;;;9.70;4.43;;;11.50;99.90;;;;;;4998883;28;20545;-65
2022/09/24 06:26:04;;;;;;;9.07;4.97;;;11.60;99.90;;;;;;5001361;28;20418;-65
2022/09/24 06:28:30;;;;;;;14.90;4.83;;;11.60;99.90;;;;;;5002845;28;20414;-65
2022/09/24 06:30:59;;;;;;;11.13;5.10;;;11.70;99.90;;;;;;5003035;28;20977;-65
2022/09/24 06:33:24;;;;;;;4.77;2.90;;;11.70;99.90;;;;;;5000065;28;20179;-65
2022/09/24 06:35:50;;;;;;;9.73;4.03;;;11.80;99.90;;;;;;5001074;28;20562;-65
2022/09/24 06:38:17;;;;;;;8.70;4.50;;;11.70;99.90;;;;;;4991338;28;20187;-65
2022/09/24 06:40:44;;;;;;;5.00;3.03;;;11.70;99.90;;;;;;4997101;28;20183;-64
2022/09/24 06:43:10;;;;;;;6.27;3.40;;;11.80;99.90;;;;;;4987768;28;20922;-65
2022/09/24 06:45:36;;;;;;;11.30;3.70;;;11.80;99.90;;;;;;4984573;28;20438;-65
2022/09/24 06:48:04;;;;;;;5.77;3.40;;;11.80;99.90;;;;;;5007112;28;20438;-64
2022/09/24 06:50:33;;;;;;;4.73;2.93;;;11.90;99.90;;;;;;5006765;28;20300;-64
2022/09/24 06:52:59;;;;;;;5.93;3.20;;;11.90;99.90;;;;;;5006142;28;20501;-65
2022/09/24 06:55:25;;;;;;;7.73;3.87;;;11.90;99.90;;;;;;5006221;28;20501;-64
2022/09/24 06:58:10;;;;;;;6.40;3.10;;;12.00;99.90;;;;;;4991671;28;20427;-65
2022/09/24 07:00:37;;;;;;;8.60;3.63;;;12.00;99.90;;;;;;5008156;28;20429;-64
2022/09/24 07:03:03;;;;;;;7.40;4.10;;;12.00;99.90;;;;;;4999631;28;20426;-65
2022/09/24 07:05:29;;;;;;;6.00;3.50;;;12.00;99.90;;;;;;4986493;28;20428;-64
2022/09/24 07:07:55;;;;;;;5.37;2.70;;;12.00;99.90;;;;;;5006758;28;20542;-64
2022/09/24 07:10:23;;;;;;;7.33;3.00;;;12.10;99.90;;;;;;5004917;28;20207;-64
2022/09/24 07:12:48;;;;;;;19.93;2.87;;;12.10;99.90;;;;;;5004701;28;20180;-64
2022/09/24 07:15:14;;;;;;;11.50;3.50;;;12.20;99.90;;;;;;4988182;28;20751;-64
2022/09/24 07:17:40;;;;;;;7.07;3.40;;;12.30;99.90;;;;;;5014713;28;20234;-64
2022/09/24 07:20:06;;;;;;;7.70;3.23;;;12.30;99.90;;;;;;5014566;28;20556;-64
2022/09/24 07:22:36;;;;;;;5.03;2.20;;;12.40;99.90;;;;;;4997196;28;20609;-64
2022/09/24 07:25:02;;;;;;;5.27;2.60;;;12.30;99.90;;;;;;5014324;28;20426;-64
2022/09/24 07:27:27;;;;;;;5.43;2.43;;;12.40;99.90;;;;;;5013718;28;20430;-64
2022/09/24 07:29:53;;;;;;;4.03;2.20;;;12.40;99.90;;;;;;5010145;28;20218;-64
2022/09/24 07:32:19;;;;;;;4.10;2.70;;;12.40;99.90;;;;;;5013271;28;20207;-64
2022/09/24 07:34:45;;;;;;;4.33;2.33;;;12.40;99.90;;;;;;5013227;28;20202;-64
2022/09/24 07:37:11;;;;;;;4.70;2.80;;;12.40;99.90;;;;;;5010452;28;20260;-64
2022/09/24 07:39:37;;;;;;;3.17;2.13;;;12.50;99.90;;;;;;5011934;28;20298;-64
2022/09/24 07:42:04;;;;;;;8.00;2.87;;;12.60;99.90;;;;;;5005721;28;20430;-65
2022/09/24 07:44:30;;;;;;;4.53;2.90;;;12.70;99.90;;;;;;5003336;28;20195;-64
2022/09/24 07:46:56;;;;;;;4.00;2.10;;;12.70;99.90;;;;;;5010560;28;20431;-64
2022/09/24 07:49:22;;;;;;;4.60;2.70;;;12.70;99.90;;;;;;5012783;28;20203;-64
2022/09/24 07:51:48;;;;;;;5.13;3.07;;;12.80;99.90;;;;;;5010501;28;20809;-64
2022/09/24 07:54:13;;;;;;;3.67;1.90;;;12.90;99.90;;;;;;5012719;28;20230;-64
2022/09/24 07:56:39;;;;;;;4.70;2.37;;;12.90;99.90;;;;;;5007388;28;20430;-64
2022/09/24 07:59:06;;;;;;;7.80;2.90;;;13.00;99.90;;;;;;5007257;28;20656;-64
2022/09/24 08:01:32;;;;;;;4.27;2.40;;;13.00;99.90;;;;;;5008831;28;20183;-64
2022/09/24 08:03:58;;;;;;;4.70;2.70;;;13.00;99.90;;;;;;5011726;28;20778;-64
2022/09/24 08:06:24;;;;;;;8.47;2.87;;;13.00;99.90;;;;;;5007406;28;20423;-64
2022/09/24 08:08:51;;;;;;;7.20;4.10;;;13.00;99.90;;;;;;5005429;28;20433;-64
2022/09/24 08:11:18;;;;;;;8.47;3.10;;;13.00;99.90;;;;;;5005393;28;20211;-65
2022/09/24 08:13:46;;;;;;;4.43;2.40;;;13.00;99.90;;;;;;5009514;28;20899;-64
2022/09/24 08:16:12;;;;;;;3.20;2.03;;;12.90;99.90;;;;;;5004723;28;20419;-64
2022/09/24 08:18:38;;;;;;;4.30;2.53;;;12.90;99.90;;;;;;5009682;28;20959;-65
2022/09/24 08:21:06;;;;;;;5.93;2.83;;;13.00;99.90;;;;;;5003924;28;20655;-64
2022/09/24 08:23:33;;;;;;;3.00;1.90;;;13.00;99.90;;;;;;5009175;28;20467;-64
2022/09/24 08:25:59;;;;;;;4.53;2.73;;;13.00;99.90;;;;;;5003427;28;20438;-64
2022/09/24 08:28:25;;;;;;;3.97;2.40;;;12.90;99.90;;;;;;5003905;28;20879;-64
2022/09/24 08:30:51;;;;;;;4.63;2.40;;;12.90;99.90;;;;;;5003562;28;20558;-65
2022/09/24 08:33:16;;;;;;;5.33;3.10;;;12.90;99.90;;;;;;5007919;28;20179;-65
2022/09/24 08:35:42;;;;;;;4.50;2.57;;;12.90;99.90;;;;;;4984740;28;20215;-65
2022/09/24 08:38:08;;;;;;;5.27;2.80;;;13.00;99.90;;;;;;5006652;28;20683;-65
2022/09/24 08:40:43;;;;;;;4.87;2.20;;;13.10;99.90;;;;;;4988565;28;20192;-65
2022/09/24 08:43:36;;;;;;;6.50;2.70;;;13.10;99.90;;;;;;5007427;28;20430;-65
2022/09/24 08:48:54;;;;;;;6.40;2.97;;;13.10;99.90;;;;;;5009696;28;20511;-65
2022/09/24 08:51:21;;;;;;;4.50;2.67;;;13.10;99.90;;;;;;5001209;28;20458;-65
2022/09/24 08:54:03;;;;;;;3.70;2.20;;;13.10;99.90;;;;;;5008029;28;20497;-65
2022/09/24 08:56:33;;;;;;;7.20;3.10;;;13.10;99.90;;;;;;5010157;28;20450;-66
2022/09/24 08:59:04;;;;;;;4.17;2.40;;;13.10;99.90;;;;;;5008221;28;20425;-64
2022/09/24 09:01:47;;;;;;;4.33;2.47;;;13.20;99.90;;;;;;5011967;28;20888;-64
2022/09/24 09:04:39;;;;;;;5.97;3.60;;;13.20;99.90;;;;;;5012159;28;20906;-64
2022/09/24 09:07:19;;;;;;;5.20;2.97;;;13.30;99.90;;;;;;5011754;28;20410;-64
2022/09/24 09:10:03;;;;;;;6.23;2.73;;;13.40;99.90;;;;;;5007970;28;20473;-65
2022/09/24 09:12:37;;;;;;;4.90;2.50;;;13.50;99.90;;;;;;5009265;28;20449;-64
2022/09/24 09:15:09;;;;;;;5.57;2.77;;;13.60;99.90;;;;;;5009866;28;20489;-64
2022/09/24 09:17:59;;;;;;;17.93;2.77;;;13.70;99.90;;;;;;5004376;28;20416;-64
2022/09/24 09:20:35;;;;;;;4.20;2.43;;;13.70;99.90;;;;;;4981418;28;20426;-63
2022/09/24 09:23:12;;;;;;;6.80;3.33;;;13.70;99.90;;;;;;4988476;28;20475;-63
2022/09/24 09:25:46;;;;;;;4.63;2.47;;;13.70;99.90;;;;;;5005321;28;20954;-63
2022/09/24 09:28:14;;;;;;;7.50;3.63;;;13.70;99.90;;;;;;5003159;28;20482;-64
2022/09/24 09:30:46;;;;;;;4.30;2.40;;;13.70;99.90;;;;;;5004708;28;20462;-64
2022/09/24 09:33:19;;;;;;;5.63;2.40;;;13.60;99.90;;;;;;5004537;28;20468;-64
2022/09/24 09:36:03;;;;;;;3.63;2.00;;;13.60;99.90;;;;;;4993008;28;20437;-65
2022/09/24 09:38:39;;;;;;;7.20;3.03;;;13.60;99.90;;;;;;4988286;28;20477;-64
2022/09/24 09:41:22;;;;;;;15.80;7.20;;;13.60;99.90;;;;;;5006428;28;20414;-64
2022/09/24 09:43:47;;;;;;;5.47;3.10;;;13.60;99.90;;;;;;5002162;28;20438;-65
2022/09/24 09:46:17;;;;;;;4.20;2.27;;;13.60;99.90;;;;;;5006843;28;20418;-67
2022/09/24 09:49:12;;;;;;;12.57;3.03;;;13.70;99.90;;;;;;5001632;28;20323;-65
2022/09/24 09:51:40;;;;;;;3.67;2.30;;;13.80;99.90;;;;;;4985618;28;20530;-64
2022/09/24 09:54:06;;;;;;;8.87;2.57;;;13.70;99.90;;;;;;5004707;28;20423;-64
2022/09/24 09:56:47;;;;;;;5.27;2.10;;;13.80;99.90;;;;;;5002032;28;20419;-64
2022/09/24 09:59:18;;;;;;;7.50;2.50;;;13.80;99.90;;;;;;5002610;28;20174;-64
2022/09/24 10:01:46;;;;;;;4.60;2.10;;;13.80;99.90;;;;;;4999729;28;20419;-64
2022/09/24 10:04:45;;;;;;;3.40;2.00;;;13.90;99.90;;;;;;5011820;28;20410;-64
2022/09/24 10:07:13;;;;;;;4.00;2.07;;;13.90;99.90;;;;;;4996478;28;20448;-64
2022/09/24 10:09:41;;;;;;;3.83;2.30;;;13.90;99.90;;;;;;5008677;28;20462;-64
2022/09/24 10:12:23;;;;;;;5.10;2.37;;;13.90;99.90;;;;;;5011054;28;20557;-65
2022/09/24 10:15:04;;;;;;;6.77;2.10;;;13.90;99.90;;;;;;5011143;28;20418;-65
2022/09/24 10:17:37;;;;;;;3.60;1.93;;;13.80;99.90;;;;;;5010753;28;20418;-65
2022/09/24 10:20:24;;;;;;;7.03;2.73;;;13.80;99.90;;;;;;5011694;28;20422;-64
2022/09/24 10:22:56;;;;;;;7.60;3.50;;;13.80;99.90;;;;;;5010341;28;20452;-64
2022/09/24 10:25:27;;;;;;;8.67;3.73;;;13.70;99.90;;;;;;4992508;28;20460;-64
2022/09/24 10:30:59;;;;;;;5.00;2.10;;;13.70;99.90;;;;;;5006352;28;21014;-64
2022/09/24 10:33:25;;;;;;;4.40;2.20;;;13.80;99.90;;;;;;5009788;28;20785;-64
2022/09/24 10:36:14;;;;;;;3.47;1.90;;;14.00;99.90;;;;;;5000341;28;20434;-64
2022/09/24 10:38:39;;;;;;;4.60;2.60;;;14.10;99.90;;;;;;4990680;28;20445;-64
2022/09/24 10:41:14;;;;;;;6.83;3.10;;;14.20;99.90;;;;;;5002153;28;20453;-65
2022/09/24 10:43:49;;;;;;;4.33;1.93;;;14.20;99.90;;;;;;5002342;28;20179;-64
2022/09/24 10:46:40;;;;;;;4.37;2.03;;;14.40;99.90;;;;;;5007485;28;21059;-64
2022/09/24 10:49:34;;;;;;;2.80;1.70;;;14.50;99.90;;;;;;5005844;28;20418;-65
2022/09/24 10:51:59;;;;;;;3.67;2.23;;;14.60;99.90;;;;;;5003162;28;20434;-65
2022/09/24 10:54:25;;;;;;;5.90;2.50;;;14.60;99.90;;;;;;5006579;28;20476;-64
2022/09/24 10:56:54;;;;;;;6.10;2.67;;;14.80;99.90;;;;;;4979946;28;20233;-64
2022/09/24 10:59:50;;;;;;;5.83;2.43;;;14.90;99.90;;;;;;5037042;23;20311;-65
2022/09/24 11:02:18;;;;;;;5.30;2.90;;;15.00;99.90;;;;;;5025529;28;20424;-65
2022/09/24 11:04:50;;;;;;;5.60;2.57;;;15.10;99.90;;;;;;5037151;28;20424;-64
2022/09/24 11:07:37;;;;;;;4.67;2.80;;;15.20;99.90;;;;;;5024259;28;20423;-64
2022/09/24 11:10:26;;;;;;;8.97;2.70;;;15.20;99.90;;;;;;5032498;28;20468;-65
2022/09/24 11:13:06;;;;;;;10.33;3.37;;;15.20;99.90;;;;;;5029062;28;20774;-65
2022/09/24 11:16:01;;;;;;;7.73;2.97;;;15.20;99.90;;;;;;5043990;28;20756;-65
2022/09/24 11:18:56;;;;;;;8.40;3.13;;;15.20;99.90;;;;;;5042151;28;20423;-65
2022/09/24 11:21:56;;;;;;;4.90;2.93;;;15.20;99.90;;;;;;5031191;28;20433;-64
2022/09/24 11:24:49;;;;;;;9.60;3.67;;;15.20;99.90;;;;;;5039504;28;20551;-65
2022/09/24 11:27:34;;;;;;;4.17;2.10;;;15.20;99.90;;;;;;5043686;28;20416;-65
2022/09/24 11:30:23;;;;;;;10.70;3.10;;;15.40;99.90;;;;;;5047325;28;20575;-65
2022/09/24 11:33:01;;;;;;;3.50;2.00;;;15.60;99.90;;;;;;5021718;28;20453;-66
2022/09/24 11:36:19;;;;;;;4.33;2.17;;;15.70;99.90;;;;;;5046623;28;20773;-65
2022/09/24 11:39:09;;;;;;;6.80;2.17;;;15.80;99.90;;;;;;4977491;28;20422;-63
2022/09/24 11:41:49;;;;;;;8.00;3.30;;;15.80;99.90;;;;;;5027974;28;20420;-64
2022/09/24 11:44:38;;;;;;;10.03;3.80;;;15.70;99.90;;;;;;5029774;28;20427;-65
2022/09/24 11:47:29;;;;;;;6.10;3.13;;;15.60;99.90;;;;;;5038492;28;20413;-65
2022/09/24 11:50:19;;;;;;;4.07;2.23;;;15.60;99.90;;;;;;5049075;28;20467;-63
2022/09/24 11:52:51;;;;;;;5.87;2.50;;;15.60;99.90;;;;;;5054900;28;20417;-63
2022/09/24 11:55:23;;;;;;;6.20;2.60;;;15.60;99.90;;;;;;5029686;28;20492;-64
2022/09/24 11:58:12;;;;;;;4.63;2.30;;;15.60;99.90;;;;;;5054852;28;20425;-64
2022/09/24 12:01:03;;;;;;;3.43;2.00;;;15.80;99.90;;;;;;5058368;28;20444;-64
2022/09/24 12:03:41;;;;;;;19.13;2.43;;;15.80;99.90;;;;;;5036226;28;20430;-65
2022/09/24 12:06:12;;;;;;;6.30;2.63;;;15.80;99.90;;;;;;5039162;28;20452;-65
2022/09/24 12:09:00;;;;;;;2.17;1.37;;;15.70;99.90;;;;;;5014669;28;20437;-65
2022/09/24 12:11:45;;;;;;;4.77;1.70;;;15.60;99.90;;;;;;5023520;28;20440;-65
2022/09/24 12:14:28;;;;;;;3.77;2.13;;;15.60;99.90;;;;;;5025621;28;20413;-65
2022/09/24 12:17:02;;;;;;;5.40;2.53;;;15.40;99.90;;;;;;5014678;28;20424;-65
2022/09/24 12:19:43;;;;;;;4.20;2.10;;;15.30;99.90;;;;;;5029520;28;20418;-65
2022/09/24 12:22:10;;;;;;;3.87;1.50;;;15.20;99.90;;;;;;5024339;28;20429;-65
2022/09/24 12:24:48;;;;;;;3.57;1.40;;;15.10;99.90;;;;;;5028504;28;20421;-65
2022/09/24 12:27:18;;;;;;;4.13;1.47;;;15.20;99.90;;;;;;4999685;28;21067;-65
2022/09/24 12:33:08;;;;;;;2.20;1.40;;;14.90;99.90;;;;;;5014182;28;20425;-65
2022/09/24 12:36:00;;;;;;;7.67;2.47;;;14.80;99.90;;;;;;5016323;28;20437;-65
2022/09/24 12:38:44;;;;;;;3.87;1.50;;;14.80;99.90;;;;;;5013173;28;20463;-65
2022/09/24 12:41:25;;;;;;;3.20;1.90;;;14.70;99.90;;;;;;5012235;28;20448;-65
2022/09/24 12:43:59;;;;;;;3.67;1.63;;;14.70;99.90;;;;;;4995054;28;20437;-65
2022/09/24 12:46:30;;;;;;;4.90;1.90;;;14.70;99.90;;;;;;5004444;28;20945;-65
2022/09/24 12:48:56;;;;;;;2.87;1.77;;;14.70;99.90;;;;;;5026245;28;20424;-65
2022/09/24 12:51:22;;;;;;;5.47;1.43;;;14.60;99.90;;;;;;5021898;28;20465;-65
2022/09/24 12:54:04;;;;;;;10.70;4.20;;;14.60;99.90;;;;;;5022268;28;20190;-65
2022/09/24 12:56:30;;;;;;;6.37;2.30;;;14.70;99.90;;;;;;5009397;28;20441;-65
2022/09/24 12:58:56;;;;;;;2.00;1.37;;;14.70;99.90;;;;;;5019648;28;20445;-65
2022/09/24 13:01:21;;;;;;;2.77;1.30;;;14.60;99.90;;;;;;5023722;28;20190;-65
2022/09/24 13:04:01;;;;;;;11.43;1.63;;;14.50;99.90;;;;;;5022451;28;20206;-66
2022/09/24 13:06:47;;;;;;;3.00;1.33;;;14.40;99.90;;;;;;5020164;28;20296;-64
2022/09/24 13:09:34;;;;;;;3.10;1.50;;;14.30;99.90;;;;;;5025395;28;20417;-64
2022/09/24 13:12:19;;;;;;;2.63;1.53;;;14.20;99.90;;;;;;5031354;28;20755;-64
2022/09/24 13:15:07;;;;;;;5.20;2.30;;;14.20;99.90;;;;;;5030123;28;20406;-63
2022/09/24 13:17:34;;;;;;;5.53;1.63;;;14.20;99.90;;;;;;5031690;28;20189;-64
2022/09/24 13:20:05;;;;;;;4.00;2.10;;;14.20;99.90;;;;;;5031974;28;20425;-64
2022/09/24 13:22:34;;;;;;;3.83;1.87;;;14.20;99.90;;;;;;5030426;28;20484;-64
2022/09/24 13:25:09;;;;;;;7.23;2.30;;;14.30;99.90;;;;;;5031288;28;20989;-64
2022/09/24 13:27:37;;;;;;;4.47;2.00;;;14.50;99.90;;;;;;5029180;28;20928;-64